sensor_id;sensor_type;location;lat;lon;timestamp;P1;durP1;ratioP1;P2;durP2;ratioP2
11614;SDS011;5863;52.832;4.758;2022-10-31T00:01:48;6.68;;;1.60;;
11614;SDS011;5863;52.832;4.758;2022-10-31T00:04:15;5.60;;;1.48;;
11614;SDS011;5863;52.832;4.758;2022-10-31T00:06:41;9.27;;;1.60;;
11614;SDS011;5863;52.832;4.758;2022-10-31T00:09:10;7.47;;;1.67;;
11614;SDS011;5863;52.832;4.758;2022-10-31T00:11:36;4.88;;;1.52;;
11614;SDS011;5863;52.832;4.758;2022-10-31T00:14:03;4.35;;;1.52;;
11614;SDS011;5863;52.832;4.758;2022-10-31T00:16:30;8.10;;;1.83;;
11614;SDS011;5863;52.832;4.758;2022-10-31T00:18:58;6.35;;;1.63;;
11614;SDS011;5863;52.832;4.758;2022-10-31T00:21:26;5.55;;;1.40;;
11614;SDS011;5863;52.832;4.758;2022-10-31T00:23:54;6.60;;;1.48;;
11614;SDS011;5863;52.832;4.758;2022-10-31T00:26:22;9.13;;;1.73;;
11614;SDS011;5863;52.832;4.758;2022-10-31T00:28:49;6.90;;;1.90;;
11614;SDS011;5863;52.832;4.758;2022-10-31T00:31:16;5.93;;;2.00;;
11614;SDS011;5863;52.832;4.758;2022-10-31T00:33:43;4.65;;;1.70;;
11614;SDS011;5863;52.832;4.758;2022-10-31T00:36:11;6.25;;;1.83;;
11614;SDS011;5863;52.832;4.758;2022-10-31T00:38:39;6.72;;;1.77;;
11614;SDS011;5863;52.832;4.758;2022-10-31T00:41:06;6.35;;;1.92;;
11614;SDS011;5863;52.832;4.758;2022-10-31T00:43:34;6.40;;;2.08;;
11614;SDS011;5863;52.832;4.758;2022-10-31T00:46:01;6.63;;;1.90;;
11614;SDS011;5863;52.832;4.758;2022-10-31T00:48:28;7.05;;;1.60;;
11614;SDS011;5863;52.832;4.758;2022-10-31T00:50:55;5.38;;;2.10;;
11614;SDS011;5863;52.832;4.758;2022-10-31T00:53:22;8.20;;;1.67;;
11614;SDS011;5863;52.832;4.758;2022-10-31T00:55:49;5.22;;;1.67;;
11614;SDS011;5863;52.832;4.758;2022-10-31T00:58:17;8.82;;;2.40;;
11614;SDS011;5863;52.832;4.758;2022-10-31T01:00:47;7.10;;;1.98;;
11614;SDS011;5863;52.832;4.758;2022-10-31T01:03:19;5.57;;;1.98;;
11614;SDS011;5863;52.832;4.758;2022-10-31T01:05:54;9.68;;;1.90;;
11614;SDS011;5863;52.832;4.758;2022-10-31T01:08:22;7.30;;;2.33;;
11614;SDS011;5863;52.832;4.758;2022-10-31T01:10:57;7.05;;;1.98;;
11614;SDS011;5863;52.832;4.758;2022-10-31T01:13:25;6.25;;;1.88;;
11614;SDS011;5863;52.832;4.758;2022-10-31T01:15:54;4.57;;;2.10;;
11614;SDS011;5863;52.832;4.758;2022-10-31T01:18:22;8.20;;;2.28;;
11614;SDS011;5863;52.832;4.758;2022-10-31T01:20:56;5.53;;;1.75;;
11614;SDS011;5863;52.832;4.758;2022-10-31T01:23:24;4.28;;;1.38;;
11614;SDS011;5863;52.832;4.758;2022-10-31T01:25:58;7.07;;;1.70;;
11614;SDS011;5863;52.832;4.758;2022-10-31T01:28:25;4.13;;;1.58;;
11614;SDS011;5863;52.832;4.758;2022-10-31T01:30:52;5.47;;;1.67;;
11614;SDS011;5863;52.832;4.758;2022-10-31T01:33:20;6.05;;;2.03;;
11614;SDS011;5863;52.832;4.758;2022-10-31T01:35:47;8.57;;;1.88;;
11614;SDS011;5863;52.832;4.758;2022-10-31T01:38:13;8.75;;;1.85;;
11614;SDS011;5863;52.832;4.758;2022-10-31T01:40:41;8.52;;;2.20;;
11614;SDS011;5863;52.832;4.758;2022-10-31T01:43:09;3.70;;;1.88;;
11614;SDS011;5863;52.832;4.758;2022-10-31T01:45:39;6.13;;;2.08;;
11614;SDS011;5863;52.832;4.758;2022-10-31T01:48:07;5.50;;;2.42;;
11614;SDS011;5863;52.832;4.758;2022-10-31T01:50:41;6.63;;;2.67;;
11614;SDS011;5863;52.832;4.758;2022-10-31T01:53:10;5.25;;;2.75;;
11614;SDS011;5863;52.832;4.758;2022-10-31T01:55:39;4.28;;;2.97;;
11614;SDS011;5863;52.832;4.758;2022-10-31T01:58:10;6.18;;;3.42;;
11614;SDS011;5863;52.832;4.758;2022-10-31T02:00:40;6.57;;;3.40;;
11614;SDS011;5863;52.832;4.758;2022-10-31T02:03:10;6.63;;;3.30;;
11614;SDS011;5863;52.832;4.758;2022-10-31T02:05:37;8.32;;;3.78;;
11614;SDS011;5863;52.832;4.758;2022-10-31T02:08:07;7.80;;;3.72;;
11614;SDS011;5863;52.832;4.758;2022-10-31T02:10:39;5.68;;;3.72;;
11614;SDS011;5863;52.832;4.758;2022-10-31T02:13:08;5.82;;;3.55;;
11614;SDS011;5863;52.832;4.758;2022-10-31T02:15:36;7.57;;;3.88;;
11614;SDS011;5863;52.832;4.758;2022-10-31T02:18:05;8.70;;;3.85;;
11614;SDS011;5863;52.832;4.758;2022-10-31T02:20:35;8.02;;;4.35;;
11614;SDS011;5863;52.832;4.758;2022-10-31T02:23:19;11.73;;;4.18;;
11614;SDS011;5863;52.832;4.758;2022-10-31T02:26:09;8.93;;;3.60;;
11614;SDS011;5863;52.832;4.758;2022-10-31T02:28:57;8.52;;;4.13;;
11614;SDS011;5863;52.832;4.758;2022-10-31T02:31:43;6.20;;;4.07;;
11614;SDS011;5863;52.832;4.758;2022-10-31T02:34:17;7.40;;;3.60;;
11614;SDS011;5863;52.832;4.758;2022-10-31T02:36:51;5.75;;;3.40;;
11614;SDS011;5863;52.832;4.758;2022-10-31T02:39:23;7.05;;;3.90;;
11614;SDS011;5863;52.832;4.758;2022-10-31T02:41:55;5.95;;;3.72;;
11614;SDS011;5863;52.832;4.758;2022-10-31T02:44:31;9.07;;;4.43;;
11614;SDS011;5863;52.832;4.758;2022-10-31T02:47:05;6.82;;;4.43;;
11614;SDS011;5863;52.832;4.758;2022-10-31T02:49:35;7.93;;;4.60;;
11614;SDS011;5863;52.832;4.758;2022-10-31T02:54:50;6.57;;;4.28;;
11614;SDS011;5863;52.832;4.758;2022-10-31T02:57:17;6.85;;;4.35;;
11614;SDS011;5863;52.832;4.758;2022-10-31T02:59:50;7.82;;;4.32;;
11614;SDS011;5863;52.832;4.758;2022-10-31T03:02:28;5.72;;;4.47;;
11614;SDS011;5863;52.832;4.758;2022-10-31T03:05:09;8.27;;;4.63;;
11614;SDS011;5863;52.832;4.758;2022-10-31T03:07:46;9.75;;;4.78;;
11614;SDS011;5863;52.832;4.758;2022-10-31T03:10:20;8.82;;;5.53;;
11614;SDS011;5863;52.832;4.758;2022-10-31T03:12:55;8.65;;;4.95;;
11614;SDS011;5863;52.832;4.758;2022-10-31T03:15:27;6.18;;;3.97;;
11614;SDS011;5863;52.832;4.758;2022-10-31T03:17:59;6.15;;;4.55;;
11614;SDS011;5863;52.832;4.758;2022-10-31T03:20:31;8.20;;;4.38;;
11614;SDS011;5863;52.832;4.758;2022-10-31T03:23:02;8.07;;;4.95;;
11614;SDS011;5863;52.832;4.758;2022-10-31T03:25:32;6.47;;;4.60;;
11614;SDS011;5863;52.832;4.758;2022-10-31T03:28:02;6.03;;;4.93;;
11614;SDS011;5863;52.832;4.758;2022-10-31T03:30:31;7.07;;;5.13;;
11614;SDS011;5863;52.832;4.758;2022-10-31T03:33:04;7.45;;;5.22;;
11614;SDS011;5863;52.832;4.758;2022-10-31T03:35:35;9.88;;;6.38;;
11614;SDS011;5863;52.832;4.758;2022-10-31T03:38:05;7.70;;;5.90;;
11614;SDS011;5863;52.832;4.758;2022-10-31T03:40:32;6.55;;;5.70;;
11614;SDS011;5863;52.832;4.758;2022-10-31T03:43:03;10.38;;;6.10;;
11614;SDS011;5863;52.832;4.758;2022-10-31T03:45:33;10.23;;;5.95;;
11614;SDS011;5863;52.832;4.758;2022-10-31T03:48:07;9.80;;;5.78;;
11614;SDS011;5863;52.832;4.758;2022-10-31T03:50:35;8.23;;;6.57;;
11614;SDS011;5863;52.832;4.758;2022-10-31T03:53:06;6.82;;;6.07;;
11614;SDS011;5863;52.832;4.758;2022-10-31T03:55:39;7.47;;;6.38;;
11614;SDS011;5863;52.832;4.758;2022-10-31T03:58:10;9.18;;;6.82;;
11614;SDS011;5863;52.832;4.758;2022-10-31T04:00:42;8.00;;;6.38;;
11614;SDS011;5863;52.832;4.758;2022-10-31T04:03:14;10.77;;;6.75;;
11614;SDS011;5863;52.832;4.758;2022-10-31T04:05:43;8.35;;;6.45;;
11614;SDS011;5863;52.832;4.758;2022-10-31T04:08:14;7.82;;;6.72;;
11614;SDS011;5863;52.832;4.758;2022-10-31T04:10:44;8.88;;;6.53;;
11614;SDS011;5863;52.832;4.758;2022-10-31T04:13:13;9.88;;;6.82;;
11614;SDS011;5863;52.832;4.758;2022-10-31T04:15:43;9.55;;;7.20;;
11614;SDS011;5863;52.832;4.758;2022-10-31T04:18:13;10.38;;;7.22;;
11614;SDS011;5863;52.832;4.758;2022-10-31T04:20:40;8.25;;;7.25;;
11614;SDS011;5863;52.832;4.758;2022-10-31T04:23:10;8.38;;;7.13;;
11614;SDS011;5863;52.832;4.758;2022-10-31T04:25:44;7.13;;;6.43;;
11614;SDS011;5863;52.832;4.758;2022-10-31T04:28:10;10.30;;;7.90;;
11614;SDS011;5863;52.832;4.758;2022-10-31T04:30:37;9.73;;;7.50;;
11614;SDS011;5863;52.832;4.758;2022-10-31T04:33:04;7.68;;;6.85;;
11614;SDS011;5863;52.832;4.758;2022-10-31T04:35:32;9.38;;;7.30;;
11614;SDS011;5863;52.832;4.758;2022-10-31T04:38:00;10.23;;;6.88;;
11614;SDS011;5863;52.832;4.758;2022-10-31T04:40:26;7.75;;;6.72;;
11614;SDS011;5863;52.832;4.758;2022-10-31T04:42:53;8.93;;;6.50;;
11614;SDS011;5863;52.832;4.758;2022-10-31T04:45:19;8.52;;;6.90;;
11614;SDS011;5863;52.832;4.758;2022-10-31T04:47:46;10.75;;;7.05;;
11614;SDS011;5863;52.832;4.758;2022-10-31T04:50:13;9.07;;;7.35;;
11614;SDS011;5863;52.832;4.758;2022-10-31T04:52:41;9.13;;;6.88;;
11614;SDS011;5863;52.832;4.758;2022-10-31T04:55:10;8.65;;;6.50;;
11614;SDS011;5863;52.832;4.758;2022-10-31T04:57:40;8.98;;;6.85;;
11614;SDS011;5863;52.832;4.758;2022-10-31T05:00:08;8.88;;;6.63;;
11614;SDS011;5863;52.832;4.758;2022-10-31T05:02:42;10.13;;;6.93;;
11614;SDS011;5863;52.832;4.758;2022-10-31T05:05:09;10.68;;;7.05;;
11614;SDS011;5863;52.832;4.758;2022-10-31T05:07:37;9.82;;;7.20;;
11614;SDS011;5863;52.832;4.758;2022-10-31T05:10:07;9.77;;;7.00;;
11614;SDS011;5863;52.832;4.758;2022-10-31T05:12:35;11.98;;;7.97;;
11614;SDS011;5863;52.832;4.758;2022-10-31T05:15:02;10.15;;;7.93;;
11614;SDS011;5863;52.832;4.758;2022-10-31T05:17:30;10.75;;;7.32;;
11614;SDS011;5863;52.832;4.758;2022-10-31T05:19:57;9.85;;;7.40;;
11614;SDS011;5863;52.832;4.758;2022-10-31T05:22:24;9.63;;;7.40;;
11614;SDS011;5863;52.832;4.758;2022-10-31T05:24:50;11.18;;;7.88;;
11614;SDS011;5863;52.832;4.758;2022-10-31T05:27:18;11.68;;;8.13;;
11614;SDS011;5863;52.832;4.758;2022-10-31T05:29:45;9.40;;;7.55;;
11614;SDS011;5863;52.832;4.758;2022-10-31T05:32:12;11.27;;;7.70;;
11614;SDS011;5863;52.832;4.758;2022-10-31T05:34:39;9.05;;;7.78;;
11614;SDS011;5863;52.832;4.758;2022-10-31T05:37:05;9.73;;;7.85;;
11614;SDS011;5863;52.832;4.758;2022-10-31T05:39:32;10.88;;;7.22;;
11614;SDS011;5863;52.832;4.758;2022-10-31T05:41:59;10.48;;;8.10;;
11614;SDS011;5863;52.832;4.758;2022-10-31T05:44:27;9.43;;;7.30;;
11614;SDS011;5863;52.832;4.758;2022-10-31T05:46:53;9.27;;;7.50;;
11614;SDS011;5863;52.832;4.758;2022-10-31T05:49:20;8.57;;;7.32;;
11614;SDS011;5863;52.832;4.758;2022-10-31T05:51:47;7.18;;;6.45;;
11614;SDS011;5863;52.832;4.758;2022-10-31T05:54:14;8.48;;;7.57;;
11614;SDS011;5863;52.832;4.758;2022-10-31T05:56:41;12.18;;;7.45;;
11614;SDS011;5863;52.832;4.758;2022-10-31T05:59:07;7.75;;;6.95;;
11614;SDS011;5863;52.832;4.758;2022-10-31T06:01:35;8.57;;;7.68;;
11614;SDS011;5863;52.832;4.758;2022-10-31T06:04:02;9.70;;;8.70;;
11614;SDS011;5863;52.832;4.758;2022-10-31T06:06:28;11.65;;;8.82;;
11614;SDS011;5863;52.832;4.758;2022-10-31T06:08:55;11.02;;;9.50;;
11614;SDS011;5863;52.832;4.758;2022-10-31T06:11:22;9.80;;;8.73;;
11614;SDS011;5863;52.832;4.758;2022-10-31T06:13:49;10.18;;;8.77;;
11614;SDS011;5863;52.832;4.758;2022-10-31T06:16:16;10.27;;;9.13;;
11614;SDS011;5863;52.832;4.758;2022-10-31T06:18:48;9.40;;;8.50;;
11614;SDS011;5863;52.832;4.758;2022-10-31T06:21:15;9.95;;;8.30;;
11614;SDS011;5863;52.832;4.758;2022-10-31T06:23:41;11.23;;;8.45;;
11614;SDS011;5863;52.832;4.758;2022-10-31T06:26:08;8.75;;;7.85;;
11614;SDS011;5863;52.832;4.758;2022-10-31T06:28:35;10.43;;;8.30;;
11614;SDS011;5863;52.832;4.758;2022-10-31T06:31:01;8.45;;;7.45;;
11614;SDS011;5863;52.832;4.758;2022-10-31T06:33:28;8.52;;;7.65;;
11614;SDS011;5863;52.832;4.758;2022-10-31T06:35:56;9.90;;;8.30;;
11614;SDS011;5863;52.832;4.758;2022-10-31T06:38:23;10.80;;;8.23;;
11614;SDS011;5863;52.832;4.758;2022-10-31T06:40:51;11.45;;;8.85;;
11614;SDS011;5863;52.832;4.758;2022-10-31T06:43:18;10.95;;;8.40;;
11614;SDS011;5863;52.832;4.758;2022-10-31T06:45:45;9.95;;;7.85;;
11614;SDS011;5863;52.832;4.758;2022-10-31T06:48:12;10.35;;;8.20;;
11614;SDS011;5863;52.832;4.758;2022-10-31T06:50:39;9.20;;;7.95;;
11614;SDS011;5863;52.832;4.758;2022-10-31T06:53:07;10.02;;;8.63;;
11614;SDS011;5863;52.832;4.758;2022-10-31T06:55:36;10.50;;;7.90;;
11614;SDS011;5863;52.832;4.758;2022-10-31T06:58:02;9.82;;;8.20;;
11614;SDS011;5863;52.832;4.758;2022-10-31T07:00:30;9.25;;;7.47;;
11614;SDS011;5863;52.832;4.758;2022-10-31T07:02:57;11.70;;;9.20;;
11614;SDS011;5863;52.832;4.758;2022-10-31T07:05:25;10.27;;;8.85;;
11614;SDS011;5863;52.832;4.758;2022-10-31T07:07:53;10.07;;;8.52;;
11614;SDS011;5863;52.832;4.758;2022-10-31T07:10:22;12.13;;;8.45;;
11614;SDS011;5863;52.832;4.758;2022-10-31T07:12:53;9.63;;;8.63;;
11614;SDS011;5863;52.832;4.758;2022-10-31T07:15:20;14.27;;;8.75;;
11614;SDS011;5863;52.832;4.758;2022-10-31T07:17:47;10.85;;;9.57;;
11614;SDS011;5863;52.832;4.758;2022-10-31T07:20:15;15.10;;;10.57;;
11614;SDS011;5863;52.832;4.758;2022-10-31T07:22:42;15.02;;;10.40;;
11614;SDS011;5863;52.832;4.758;2022-10-31T07:25:11;11.80;;;10.52;;
11614;SDS011;5863;52.832;4.758;2022-10-31T07:27:40;14.13;;;11.20;;
11614;SDS011;5863;52.832;4.758;2022-10-31T07:30:08;13.65;;;11.27;;
11614;SDS011;5863;52.832;4.758;2022-10-31T07:32:38;12.88;;;10.73;;
11614;SDS011;5863;52.832;4.758;2022-10-31T07:35:05;12.63;;;11.25;;
11614;SDS011;5863;52.832;4.758;2022-10-31T07:37:33;15.70;;;11.73;;
11614;SDS011;5863;52.832;4.758;2022-10-31T07:39:59;15.07;;;12.43;;
11614;SDS011;5863;52.832;4.758;2022-10-31T07:42:26;14.75;;;11.85;;
11614;SDS011;5863;52.832;4.758;2022-10-31T07:44:55;16.58;;;13.10;;
11614;SDS011;5863;52.832;4.758;2022-10-31T07:47:21;17.50;;;13.40;;
11614;SDS011;5863;52.832;4.758;2022-10-31T07:49:48;18.73;;;14.02;;
11614;SDS011;5863;52.832;4.758;2022-10-31T07:52:25;18.45;;;14.80;;
11614;SDS011;5863;52.832;4.758;2022-10-31T07:54:51;21.98;;;15.65;;
11614;SDS011;5863;52.832;4.758;2022-10-31T07:57:18;20.48;;;16.23;;
11614;SDS011;5863;52.832;4.758;2022-10-31T07:59:45;18.63;;;16.13;;
11614;SDS011;5863;52.832;4.758;2022-10-31T08:02:12;24.10;;;17.33;;
11614;SDS011;5863;52.832;4.758;2022-10-31T08:04:39;19.92;;;16.10;;
11614;SDS011;5863;52.832;4.758;2022-10-31T08:07:06;18.95;;;15.57;;
11614;SDS011;5863;52.832;4.758;2022-10-31T08:09:32;20.60;;;16.45;;
11614;SDS011;5863;52.832;4.758;2022-10-31T08:11:59;20.67;;;15.45;;
11614;SDS011;5863;52.832;4.758;2022-10-31T08:14:26;20.23;;;15.68;;
11614;SDS011;5863;52.832;4.758;2022-10-31T08:16:53;20.60;;;16.33;;
11614;SDS011;5863;52.832;4.758;2022-10-31T08:19:21;24.40;;;17.27;;
11614;SDS011;5863;52.832;4.758;2022-10-31T08:21:50;21.52;;;16.73;;
11614;SDS011;5863;52.832;4.758;2022-10-31T08:24:17;22.30;;;16.63;;
11614;SDS011;5863;52.832;4.758;2022-10-31T08:26:44;22.13;;;17.63;;
11614;SDS011;5863;52.832;4.758;2022-10-31T08:29:10;19.88;;;16.23;;
11614;SDS011;5863;52.832;4.758;2022-10-31T08:31:37;20.60;;;16.20;;
11614;SDS011;5863;52.832;4.758;2022-10-31T08:34:04;20.48;;;16.25;;
11614;SDS011;5863;52.832;4.758;2022-10-31T08:36:32;19.33;;;17.25;;
11614;SDS011;5863;52.832;4.758;2022-10-31T08:38:59;24.58;;;16.30;;
11614;SDS011;5863;52.832;4.758;2022-10-31T08:41:25;22.15;;;16.27;;
11614;SDS011;5863;52.832;4.758;2022-10-31T08:43:52;24.85;;;17.38;;
11614;SDS011;5863;52.832;4.758;2022-10-31T08:46:19;20.95;;;16.17;;
11614;SDS011;5863;52.832;4.758;2022-10-31T08:48:47;19.65;;;16.00;;
11614;SDS011;5863;52.832;4.758;2022-10-31T08:51:13;20.20;;;15.98;;
11614;SDS011;5863;52.832;4.758;2022-10-31T08:53:42;21.65;;;16.42;;
11614;SDS011;5863;52.832;4.758;2022-10-31T08:56:08;17.52;;;14.80;;
11614;SDS011;5863;52.832;4.758;2022-10-31T08:58:35;20.45;;;14.98;;
11614;SDS011;5863;52.832;4.758;2022-10-31T09:01:02;19.17;;;14.73;;
11614;SDS011;5863;52.832;4.758;2022-10-31T09:03:29;21.20;;;15.65;;
11614;SDS011;5863;52.832;4.758;2022-10-31T09:05:57;19.00;;;15.93;;
11614;SDS011;5863;52.832;4.758;2022-10-31T09:08:25;24.45;;;15.15;;
11614;SDS011;5863;52.832;4.758;2022-10-31T09:10:55;19.73;;;15.45;;
11614;SDS011;5863;52.832;4.758;2022-10-31T09:13:22;17.10;;;14.20;;
11614;SDS011;5863;52.832;4.758;2022-10-31T09:15:49;19.70;;;14.32;;
11614;SDS011;5863;52.832;4.758;2022-10-31T09:18:17;20.08;;;15.02;;
11614;SDS011;5863;52.832;4.758;2022-10-31T09:20:46;20.05;;;15.63;;
11614;SDS011;5863;52.832;4.758;2022-10-31T09:23:13;18.00;;;14.73;;
11614;SDS011;5863;52.832;4.758;2022-10-31T09:25:41;20.35;;;15.00;;
11614;SDS011;5863;52.832;4.758;2022-10-31T09:28:11;18.17;;;14.43;;
11614;SDS011;5863;52.832;4.758;2022-10-31T09:30:38;19.70;;;15.10;;
11614;SDS011;5863;52.832;4.758;2022-10-31T09:33:06;21.90;;;16.70;;
11614;SDS011;5863;52.832;4.758;2022-10-31T09:35:35;20.13;;;15.75;;
11614;SDS011;5863;52.832;4.758;2022-10-31T09:38:03;22.80;;;16.42;;
11614;SDS011;5863;52.832;4.758;2022-10-31T09:40:34;21.55;;;16.33;;
11614;SDS011;5863;52.832;4.758;2022-10-31T09:43:03;18.90;;;15.05;;
11614;SDS011;5863;52.832;4.758;2022-10-31T09:45:41;23.98;;;15.75;;
11614;SDS011;5863;52.832;4.758;2022-10-31T09:48:28;19.20;;;14.23;;
11614;SDS011;5863;52.832;4.758;2022-10-31T09:51:07;20.67;;;14.30;;
11614;SDS011;5863;52.832;4.758;2022-10-31T09:53:37;18.10;;;12.77;;
11614;SDS011;5863;52.832;4.758;2022-10-31T09:56:08;18.40;;;13.75;;
11614;SDS011;5863;52.832;4.758;2022-10-31T09:58:42;15.80;;;12.50;;
11614;SDS011;5863;52.832;4.758;2022-10-31T10:01:15;16.65;;;12.48;;
11614;SDS011;5863;52.832;4.758;2022-10-31T10:03:59;13.35;;;11.55;;
11614;SDS011;5863;52.832;4.758;2022-10-31T10:06:29;20.00;;;12.32;;
11614;SDS011;5863;52.832;4.758;2022-10-31T10:09:01;14.38;;;11.57;;
11614;SDS011;5863;52.832;4.758;2022-10-31T10:11:35;16.05;;;11.75;;
11614;SDS011;5863;52.832;4.758;2022-10-31T10:14:15;14.05;;;11.02;;
11614;SDS011;5863;52.832;4.758;2022-10-31T10:17:06;14.50;;;10.30;;
11614;SDS011;5863;52.832;4.758;2022-10-31T10:19:46;12.32;;;9.63;;
11614;SDS011;5863;52.832;4.758;2022-10-31T10:22:30;13.23;;;9.75;;
11614;SDS011;5863;52.832;4.758;2022-10-31T10:25:09;13.60;;;9.68;;
11614;SDS011;5863;52.832;4.758;2022-10-31T10:27:46;13.63;;;10.50;;
11614;SDS011;5863;52.832;4.758;2022-10-31T10:30:18;13.77;;;9.70;;
11614;SDS011;5863;52.832;4.758;2022-10-31T10:32:46;13.25;;;10.43;;
11614;SDS011;5863;52.832;4.758;2022-10-31T10:35:19;14.57;;;10.52;;
11614;SDS011;5863;52.832;4.758;2022-10-31T10:37:50;13.00;;;10.10;;
11614;SDS011;5863;52.832;4.758;2022-10-31T10:40:23;14.48;;;11.10;;
11614;SDS011;5863;52.832;4.758;2022-10-31T10:42:53;14.60;;;9.63;;
11614;SDS011;5863;52.832;4.758;2022-10-31T10:45:46;11.85;;;9.82;;
11614;SDS011;5863;52.832;4.758;2022-10-31T10:48:44;13.15;;;9.88;;
11614;SDS011;5863;52.832;4.758;2022-10-31T10:51:21;13.02;;;9.75;;
11614;SDS011;5863;52.832;4.758;2022-10-31T10:53:58;13.82;;;10.45;;
11614;SDS011;5863;52.832;4.758;2022-10-31T10:56:45;16.23;;;9.68;;
11614;SDS011;5863;52.832;4.758;2022-10-31T10:59:20;16.20;;;9.65;;
11614;SDS011;5863;52.832;4.758;2022-10-31T11:01:49;13.10;;;10.13;;
11614;SDS011;5863;52.832;4.758;2022-10-31T11:04:25;15.00;;;9.82;;
11614;SDS011;5863;52.832;4.758;2022-10-31T11:06:59;12.73;;;9.82;;
11614;SDS011;5863;52.832;4.758;2022-10-31T11:09:27;15.63;;;10.27;;
11614;SDS011;5863;52.832;4.758;2022-10-31T11:11:54;18.63;;;10.43;;
11614;SDS011;5863;52.832;4.758;2022-10-31T11:14:22;13.32;;;10.25;;
11614;SDS011;5863;52.832;4.758;2022-10-31T11:16:51;15.40;;;10.23;;
11614;SDS011;5863;52.832;4.758;2022-10-31T11:19:22;14.40;;;9.55;;
11614;SDS011;5863;52.832;4.758;2022-10-31T11:21:51;15.52;;;10.00;;
11614;SDS011;5863;52.832;4.758;2022-10-31T11:24:19;14.10;;;9.88;;
11614;SDS011;5863;52.832;4.758;2022-10-31T11:26:47;16.67;;;9.75;;
11614;SDS011;5863;52.832;4.758;2022-10-31T11:29:16;16.20;;;10.25;;
11614;SDS011;5863;52.832;4.758;2022-10-31T11:31:46;14.68;;;9.52;;
11614;SDS011;5863;52.832;4.758;2022-10-31T11:34:24;11.65;;;9.18;;
11614;SDS011;5863;52.832;4.758;2022-10-31T11:36:54;11.88;;;9.40;;
11614;SDS011;5863;52.832;4.758;2022-10-31T11:39:26;13.75;;;9.77;;
11614;SDS011;5863;52.832;4.758;2022-10-31T11:41:53;15.45;;;9.75;;
11614;SDS011;5863;52.832;4.758;2022-10-31T11:44:21;13.20;;;10.00;;
11614;SDS011;5863;52.832;4.758;2022-10-31T11:46:51;13.63;;;10.07;;
11614;SDS011;5863;52.832;4.758;2022-10-31T11:49:23;11.90;;;9.63;;
11614;SDS011;5863;52.832;4.758;2022-10-31T11:51:55;11.20;;;8.90;;
11614;SDS011;5863;52.832;4.758;2022-10-31T11:54:25;12.15;;;8.77;;
11614;SDS011;5863;52.832;4.758;2022-10-31T11:57:03;11.52;;;8.70;;
11614;SDS011;5863;52.832;4.758;2022-10-31T11:59:30;12.65;;;8.82;;
11614;SDS011;5863;52.832;4.758;2022-10-31T12:02:00;13.63;;;9.43;;
11614;SDS011;5863;52.832;4.758;2022-10-31T12:04:30;14.85;;;9.60;;
11614;SDS011;5863;52.832;4.758;2022-10-31T12:07:03;14.50;;;9.60;;
11614;SDS011;5863;52.832;4.758;2022-10-31T12:09:32;12.57;;;8.50;;
11614;SDS011;5863;52.832;4.758;2022-10-31T12:12:05;13.90;;;10.40;;
11614;SDS011;5863;52.832;4.758;2022-10-31T12:14:54;12.02;;;9.50;;
11614;SDS011;5863;52.832;4.758;2022-10-31T12:17:29;12.93;;;9.02;;
11614;SDS011;5863;52.832;4.758;2022-10-31T12:20:06;13.73;;;9.95;;
11614;SDS011;5863;52.832;4.758;2022-10-31T12:22:40;13.95;;;9.50;;
11614;SDS011;5863;52.832;4.758;2022-10-31T12:25:24;12.40;;;8.23;;
11614;SDS011;5863;52.832;4.758;2022-10-31T12:28:07;13.52;;;8.60;;
11614;SDS011;5863;52.832;4.758;2022-10-31T12:30:48;11.90;;;8.60;;
11614;SDS011;5863;52.832;4.758;2022-10-31T12:33:27;13.43;;;8.63;;
11614;SDS011;5863;52.832;4.758;2022-10-31T12:36:12;12.23;;;9.65;;
11614;SDS011;5863;52.832;4.758;2022-10-31T12:39:00;11.50;;;8.85;;
11614;SDS011;5863;52.832;4.758;2022-10-31T12:41:44;13.23;;;8.40;;
11614;SDS011;5863;52.832;4.758;2022-10-31T12:44:20;10.90;;;7.47;;
11614;SDS011;5863;52.832;4.758;2022-10-31T12:47:01;14.05;;;7.72;;
11614;SDS011;5863;52.832;4.758;2022-10-31T12:49:41;13.43;;;8.38;;
11614;SDS011;5863;52.832;4.758;2022-10-31T12:52:23;9.13;;;7.43;;
11614;SDS011;5863;52.832;4.758;2022-10-31T12:55:09;12.07;;;7.93;;
11614;SDS011;5863;52.832;4.758;2022-10-31T12:57:43;9.20;;;7.22;;
11614;SDS011;5863;52.832;4.758;2022-10-31T13:00:14;10.07;;;7.47;;
11614;SDS011;5863;52.832;4.758;2022-10-31T13:02:43;13.00;;;6.60;;
11614;SDS011;5863;52.832;4.758;2022-10-31T13:05:16;10.30;;;6.57;;
11614;SDS011;5863;52.832;4.758;2022-10-31T13:07:49;8.20;;;6.03;;
11614;SDS011;5863;52.832;4.758;2022-10-31T13:10:20;9.32;;;6.15;;
11614;SDS011;5863;52.832;4.758;2022-10-31T13:12:52;8.73;;;6.43;;
11614;SDS011;5863;52.832;4.758;2022-10-31T13:15:23;11.00;;;6.38;;
11614;SDS011;5863;52.832;4.758;2022-10-31T13:17:53;8.43;;;6.40;;
11614;SDS011;5863;52.832;4.758;2022-10-31T13:20:23;10.20;;;7.85;;
11614;SDS011;5863;52.832;4.758;2022-10-31T13:22:56;10.43;;;7.40;;
11614;SDS011;5863;52.832;4.758;2022-10-31T13:25:30;11.98;;;7.28;;
11614;SDS011;5863;52.832;4.758;2022-10-31T13:28:02;11.48;;;7.78;;
11614;SDS011;5863;52.832;4.758;2022-10-31T13:30:36;10.05;;;7.28;;
11614;SDS011;5863;52.832;4.758;2022-10-31T13:33:08;12.27;;;7.75;;
11614;SDS011;5863;52.832;4.758;2022-10-31T13:35:40;11.98;;;7.88;;
11614;SDS011;5863;52.832;4.758;2022-10-31T13:38:17;10.90;;;8.40;;
11614;SDS011;5863;52.832;4.758;2022-10-31T13:40:50;11.27;;;8.13;;
11614;SDS011;5863;52.832;4.758;2022-10-31T13:43:29;15.40;;;8.27;;
11614;SDS011;5863;52.832;4.758;2022-10-31T13:46:00;16.25;;;8.63;;
11614;SDS011;5863;52.832;4.758;2022-10-31T13:48:34;11.07;;;8.75;;
11614;SDS011;5863;52.832;4.758;2022-10-31T13:51:06;12.15;;;7.85;;
11614;SDS011;5863;52.832;4.758;2022-10-31T13:53:37;11.10;;;8.68;;
11614;SDS011;5863;52.832;4.758;2022-10-31T13:56:11;10.90;;;8.25;;
11614;SDS011;5863;52.832;4.758;2022-10-31T13:58:42;10.02;;;8.25;;
11614;SDS011;5863;52.832;4.758;2022-10-31T14:01:24;14.68;;;8.60;;
11614;SDS011;5863;52.832;4.758;2022-10-31T14:03:57;14.50;;;9.20;;
11614;SDS011;5863;52.832;4.758;2022-10-31T14:06:37;16.75;;;9.20;;
11614;SDS011;5863;52.832;4.758;2022-10-31T14:09:17;11.43;;;8.65;;
11614;SDS011;5863;52.832;4.758;2022-10-31T14:11:47;15.45;;;10.05;;
11614;SDS011;5863;52.832;4.758;2022-10-31T14:14:15;14.82;;;9.40;;
11614;SDS011;5863;52.832;4.758;2022-10-31T14:16:43;13.20;;;9.13;;
11614;SDS011;5863;52.832;4.758;2022-10-31T14:19:14;16.38;;;9.85;;
11614;SDS011;5863;52.832;4.758;2022-10-31T14:21:44;14.95;;;9.85;;
11614;SDS011;5863;52.832;4.758;2022-10-31T14:24:15;15.30;;;10.35;;
11614;SDS011;5863;52.832;4.758;2022-10-31T14:26:57;17.23;;;10.52;;
11614;SDS011;5863;52.832;4.758;2022-10-31T14:29:26;13.27;;;9.90;;
11614;SDS011;5863;52.832;4.758;2022-10-31T14:31:58;15.82;;;11.05;;
11614;SDS011;5863;52.832;4.758;2022-10-31T14:34:33;17.23;;;10.65;;
11614;SDS011;5863;52.832;4.758;2022-10-31T14:37:04;18.35;;;11.27;;
11614;SDS011;5863;52.832;4.758;2022-10-31T14:39:46;15.70;;;11.23;;
11614;SDS011;5863;52.832;4.758;2022-10-31T14:42:27;14.07;;;10.10;;
11614;SDS011;5863;52.832;4.758;2022-10-31T14:45:13;15.00;;;10.10;;
11614;SDS011;5863;52.832;4.758;2022-10-31T14:47:53;12.13;;;8.90;;
11614;SDS011;5863;52.832;4.758;2022-10-31T14:50:34;18.10;;;9.00;;
11614;SDS011;5863;52.832;4.758;2022-10-31T14:53:11;12.18;;;8.73;;
11614;SDS011;5863;52.832;4.758;2022-10-31T14:55:43;13.00;;;8.60;;
11614;SDS011;5863;52.832;4.758;2022-10-31T14:58:15;12.00;;;8.60;;
11614;SDS011;5863;52.832;4.758;2022-10-31T15:00:46;11.95;;;8.30;;
11614;SDS011;5863;52.832;4.758;2022-10-31T15:03:14;14.35;;;9.40;;
11614;SDS011;5863;52.832;4.758;2022-10-31T15:05:44;13.73;;;8.88;;
11614;SDS011;5863;52.832;4.758;2022-10-31T15:08:26;18.13;;;8.70;;
11614;SDS011;5863;52.832;4.758;2022-10-31T15:10:58;14.23;;;8.88;;
11614;SDS011;5863;52.832;4.758;2022-10-31T15:13:29;14.80;;;9.43;;
11614;SDS011;5863;52.832;4.758;2022-10-31T15:15:56;17.10;;;10.15;;